Time;durP1;ratioP1;P1;durP2;ratioP2;P2;SDS_P1;SDS_P2;PMS_P1;PMS_P2;Temp;Humidity;BMP_temperature;BMP_pressure;BME280_temperature;BME280_humidity;BME280_pressure;Samples;Min_cycle;Max_cycle;Signal;HPM_P1;HPM_P2
2021/04/30 00:00:39;;;;;;;15.53;2.90;;;;;;;14.14;58.43;99876.34;4957137;28;20051;-77
2021/04/30 00:03:06;;;;;;;8.17;2.50;;;;;;;14.18;58.22;99888.59;4959173;28;20046;-82
2021/04/30 00:05:33;;;;;;;6.80;2.73;;;;;;;14.03;58.51;99860.94;4963151;28;20146;-74
2021/04/30 00:08:00;;;;;;;6.97;3.30;;;;;;;14.17;58.38;99881.31;4960140;28;20564;-74
2021/04/30 00:10:27;;;;;;;7.13;3.47;;;;;;;14.10;58.50;99878.16;4960097;28;20050;-72
2021/04/30 00:12:56;;;;;;;13.75;3.60;;;;;;;14.10;58.50;99889.38;4961911;28;20051;-74
2021/04/30 00:15:22;;;;;;;6.47;2.70;;;;;;;14.04;58.53;99876.63;4957818;28;20137;-83
2021/04/30 00:17:49;;;;;;;8.43;3.07;;;;;;;13.98;58.45;99867.47;4961318;28;20042;-68
2021/04/30 00:20:16;;;;;;;9.53;3.63;;;;;;;14.04;58.63;99880.25;4953276;28;20055;-69
2021/04/30 00:22:43;;;;;;;8.00;3.40;;;;;;;14.04;58.72;99885.88;4965006;28;20039;-69
2021/04/30 00:25:10;;;;;;;9.10;3.70;;;;;;;14.00;58.87;99879.22;4959726;28;20139;-69
2021/04/30 00:27:37;;;;;;;5.97;2.67;;;;;;;13.89;58.92;99873.06;4961717;28;20047;-68
2021/04/30 00:30:07;;;;;;;11.23;3.00;;;;;;;13.86;58.86;99868.06;4963072;28;20051;-69
2021/04/30 00:32:34;;;;;;;12.77;3.07;;;;;;;13.87;58.89;99883.75;4957039;28;20065;-68
2021/04/30 00:35:02;;;;;;;6.30;2.63;;;;;;;13.82;59.02;99878.28;4961127;28;20042;-67
2021/04/30 00:37:29;;;;;;;10.77;2.77;;;;;;;13.69;59.17;99873.56;4965357;28;20053;-69
2021/04/30 00:39:55;;;;;;;8.63;2.33;;;;;;;13.62;59.01;99870.38;4959277;28;20746;-69
2021/04/30 00:42:21;;;;;;;6.43;2.53;;;;;;;13.56;59.38;99874.44;4964636;28;20047;-72
2021/04/30 00:44:48;;;;;;;9.30;3.07;;;;;;;13.50;59.79;99885.78;4955410;28;20039;-72
2021/04/30 00:47:28;;;;;;;6.13;2.60;;;;;;;13.31;60.13;99867.47;4960126;28;20062;-69
2021/04/30 00:49:55;;;;;;;4.53;2.77;;;;;;;13.10;60.48;99844.63;4962174;28;20051;-65
2021/04/30 00:52:21;;;;;;;6.67;3.97;;;;;;;13.19;60.93;99868.78;4958661;28;20051;-67
2021/04/30 00:54:48;;;;;;;7.77;3.90;;;;;;;13.09;60.91;99859.78;4953329;28;20047;-67
2021/04/30 00:57:17;;;;;;;8.83;2.93;;;;;;;13.11;61.29;99871.53;4961148;28;20050;-67
2021/04/30 00:59:43;;;;;;;8.53;2.47;;;;;;;13.08;61.32;99864.56;4959034;28;20492;-65
2021/04/30 01:02:13;;;;;;;14.40;2.40;;;;;;;13.01;61.34;99859.38;4957987;28;20055;-65
2021/04/30 01:04:40;;;;;;;7.03;2.50;;;;;;;13.05;61.52;99865.19;4961343;28;20130;-67
2021/04/30 01:07:07;;;;;;;9.33;2.57;;;;;;;13.05;61.57;99863.19;4955597;28;20492;-67
2021/04/30 01:09:33;;;;;;;8.27;3.03;;;;;;;13.09;61.11;99865.38;4959554;28;20044;-74
2021/04/30 01:11:59;;;;;;;5.73;2.63;;;;;;;13.11;61.13;99860.31;4964226;28;20058;-69
2021/04/30 01:14:28;;;;;;;6.33;3.03;;;;;;;13.09;60.91;99846.59;4963470;28;20053;-71
2021/04/30 01:16:54;;;;;;;16.83;6.00;;;;;;;13.25;60.53;99855.53;4955496;28;20042;-76
2021/04/30 01:19:25;;;;;;;8.70;2.87;;;;;;;13.24;60.42;99856.69;4964947;28;20400;-76
2021/04/30 01:21:56;;;;;;;4.33;2.40;;;;;;;13.19;60.30;99848.34;4954695;28;20134;-66
2021/04/30 01:24:24;;;;;;;6.93;3.43;;;;;;;13.29;60.27;99856.53;4956902;28;20043;-69
2021/04/30 01:26:51;;;;;;;8.77;4.40;;;;;;;13.29;60.20;99853.75;4955821;28;20046;-69
2021/04/30 01:29:17;;;;;;;5.67;2.80;;;;;;;13.34;60.04;99864.84;4956267;28;20047;-70
2021/04/30 01:31:45;;;;;;;4.87;3.13;;;;;;;13.37;60.11;99860.59;4961264;28;20062;-71
2021/04/30 01:34:12;;;;;;;8.57;4.10;;;;;;;13.25;59.97;99861.94;4959865;28;20595;-70
2021/04/30 01:36:39;;;;;;;11.07;4.90;;;;;;;13.20;60.39;99856.44;4956293;28;20047;-72
2021/04/30 01:39:08;;;;;;;9.30;4.27;;;;;;;13.16;60.50;99865.78;4961608;28;20834;-71
2021/04/30 01:41:36;;;;;;;6.40;3.30;;;;;;;13.02;60.32;99849.00;4956834;28;20047;-71
2021/04/30 01:44:13;;;;;;;6.70;3.77;;;;;;;13.09;60.22;99852.19;4952900;28;20058;-78
2021/04/30 01:46:40;;;;;;;8.17;3.63;;;;;;;13.10;60.49;99841.84;4956669;28;20143;-75
2021/04/30 01:49:09;;;;;;;9.50;3.90;;;;;;;13.14;60.33;99856.88;4959510;28;20417;-76
2021/04/30 01:51:36;;;;;;;9.20;4.40;;;;;;;13.18;60.36;99863.50;4966649;28;20080;-75
2021/04/30 01:54:04;;;;;;;12.30;5.07;;;;;;;13.16;60.38;99865.78;4967061;28;20047;-77
2021/04/30 01:56:31;;;;;;;16.43;5.63;;;;;;;13.08;60.19;99858.13;4963767;28;20073;-70
2021/04/30 01:58:57;;;;;;;8.07;4.60;;;;;;;13.05;60.54;99859.56;4964967;28;20058;-70
2021/04/30 02:01:23;;;;;;;13.43;6.63;;;;;;;12.62;60.49;99801.13;4965415;28;20484;-70
2021/04/30 02:03:50;;;;;;;10.43;6.13;;;;;;;12.95;60.45;99855.03;4961126;28;20507;-67
2021/04/30 02:06:16;;;;;;;8.27;5.13;;;;;;;12.96;60.38;99855.88;4966622;28;20054;-68
2021/04/30 02:08:43;;;;;;;9.90;5.97;;;;;;;12.90;60.35;99852.34;4961568;28;20043;-68
2021/04/30 02:11:09;;;;;;;12.27;6.40;;;;;;;12.87;60.63;99858.56;4957820;28;20047;-65
2021/04/30 02:13:35;;;;;;;13.67;7.70;;;;;;;12.87;60.69;99866.97;4955954;28;20102;-66
2021/04/30 02:16:01;;;;;;;15.63;7.40;;;;;;;12.81;60.75;99865.41;4967515;28;20087;-66
2021/04/30 02:18:28;;;;;;;14.83;7.30;;;;;;;12.66;60.87;99846.97;4967400;28;20050;-64
2021/04/30 02:20:54;;;;;;;13.93;8.13;;;;;;;12.60;60.82;99845.41;4955570;28;20535;-64
2021/04/30 02:23:21;;;;;;;14.53;7.70;;;;;;;12.57;60.50;99838.44;4959218;28;20047;-64
2021/04/30 02:25:47;;;;;;;15.40;8.00;;;;;;;12.67;60.67;99850.59;4962697;28;20043;-74
2021/04/30 02:28:14;;;;;;;12.97;8.07;;;;;;;12.67;60.84;99843.00;4959416;28;20130;-69
2021/04/30 02:30:41;;;;;;;17.93;9.70;;;;;;;12.68;60.79;99843.84;4957928;28;20054;-69
2021/04/30 02:33:10;;;;;;;13.97;8.70;;;;;;;12.66;60.84;99843.34;4955784;28;20174;-69
2021/04/30 02:35:39;;;;;;;18.20;7.60;;;;;;;12.66;60.90;99846.16;4962805;28;20051;-69
2021/04/30 02:38:10;;;;;;;17.03;8.67;;;;;;;12.54;60.95;99827.88;4959586;28;20043;-69
2021/04/30 02:40:38;;;;;;;16.07;9.33;;;;;;;12.62;60.96;99839.50;4963603;28;20074;-71
2021/04/30 02:43:10;;;;;;;15.20;8.40;;;;;;;12.64;60.88;99845.59;4966401;28;20077;-70
2021/04/30 02:45:36;;;;;;;13.13;7.77;;;;;;;12.49;60.98;99825.19;4965381;28;20578;-69
2021/04/30 02:48:11;;;;;;;15.40;7.73;;;;;;;12.64;60.92;99851.22;4960031;28;20125;-69
2021/04/30 02:50:37;;;;;;;11.90;6.20;;;;;;;12.57;61.10;99834.81;4971718;28;20085;-69
2021/04/30 02:53:03;;;;;;;16.07;6.37;;;;;;;12.57;61.30;99829.22;4957109;28;20459;-70
2021/04/30 02:55:30;;;;;;;12.13;6.90;;;;;;;12.60;61.31;99830.56;4959441;28;20047;-71
2021/04/30 02:58:00;;;;;;;12.57;7.43;;;;;;;12.60;61.24;99824.97;4963735;28;20043;-71
2021/04/30 03:00:28;;;;;;;8.83;5.57;;;;;;;12.62;61.17;99829.13;4960865;28;20051;-70
2021/04/30 03:02:56;;;;;;;10.63;4.80;;;;;;;12.59;61.15;99835.34;4957136;28;20047;-71
2021/04/30 03:05:23;;;;;;;7.60;4.17;;;;;;;12.65;61.16;99841.66;4960398;28;20079;-71
2021/04/30 03:07:50;;;;;;;12.30;5.20;;;;;;;12.64;61.22;99832.44;4963988;28;20050;-71
2021/04/30 03:10:17;;;;;;;11.77;5.73;;;;;;;12.64;61.27;99832.44;4960593;28;20051;-70
2021/04/30 03:12:44;;;;;;;10.40;5.77;;;;;;;12.47;61.37;99816.25;4955535;28;20154;-73
2021/04/30 03:15:13;;;;;;;8.93;4.70;;;;;;;12.49;61.21;99830.78;4962997;28;20062;-77
2021/04/30 03:17:45;;;;;;;8.87;4.00;;;;;;;12.48;61.24;99826.34;4959051;28;20051;-66
2021/04/30 03:20:13;;;;;;;8.20;4.60;;;;;;;12.48;61.21;99825.50;4959832;28;20073;-67
2021/04/30 03:22:40;;;;;;;7.97;4.50;;;;;;;12.49;61.27;99836.38;4965453;28;20043;-67
2021/04/30 03:25:08;;;;;;;10.37;5.37;;;;;;;12.42;61.31;99829.53;4955929;28;20047;-73
2021/04/30 03:27:34;;;;;;;12.60;7.73;;;;;;;12.28;61.46;99826.75;4966825;28;20054;-66
2021/04/30 03:30:01;;;;;;;18.13;10.13;;;;;;;12.28;61.38;99835.97;4963063;28;20049;-67
2021/04/30 03:32:27;;;;;;;23.27;10.13;;;;;;;12.22;61.31;99836.38;4967976;28;20055;-68
2021/04/30 03:34:54;;;;;;;14.43;7.83;;;;;;;12.19;61.51;99836.97;4954703;28;20058;-66
2021/04/30 03:37:22;;;;;;;13.00;6.77;;;;;;;12.09;61.47;99833.22;4953614;28;20043;-66
2021/04/30 03:39:49;;;;;;;12.03;5.53;;;;;;;12.04;61.54;99824.94;4960301;28;20047;-66
2021/04/30 03:42:15;;;;;;;7.00;4.13;;;;;;;12.09;61.63;99830.44;4959311;28;20179;-67
2021/04/30 03:44:42;;;;;;;10.27;3.70;;;;;;;12.17;61.78;99848.50;4953814;28;20055;-71
2021/04/30 03:47:08;;;;;;;8.77;3.87;;;;;;;12.07;61.72;99824.31;4953668;28;20097;-69
2021/04/30 03:49:35;;;;;;;8.77;4.03;;;;;;;12.13;62.03;99833.44;4956664;28;20485;-71
2021/04/30 03:52:01;;;;;;;6.10;3.70;;;;;;;12.03;61.83;99806.50;4961825;28;20487;-71
2021/04/30 03:54:28;;;;;;;5.20;3.07;;;;;;;12.00;61.81;99798.72;4954263;28;20043;-70
2021/04/30 03:56:54;;;;;;;7.10;3.23;;;;;;;12.16;61.86;99826.41;4966457;28;20047;-70
2021/04/30 03:59:21;;;;;;;8.77;3.63;;;;;;;12.18;61.92;99832.53;4953657;28;20453;-68
2021/04/30 04:01:47;;;;;;;7.50;4.23;;;;;;;12.17;61.81;99828.06;4961456;28;20046;-70
2021/04/30 04:04:13;;;;;;;12.07;5.43;;;;;;;12.19;61.54;99831.38;4956334;28;20050;-67
2021/04/30 04:06:39;;;;;;;13.83;7.47;;;;;;;12.07;61.85;99813.13;4957162;28;20062;-67
2021/04/30 04:09:06;;;;;;;18.70;9.57;;;;;;;12.07;61.66;99829.09;4955117;28;20071;-67
2021/04/30 04:11:32;;;;;;;15.37;8.47;;;;;;;11.94;61.67;99813.09;4960988;28;20100;-66
2021/04/30 04:13:58;;;;;;;11.00;5.87;;;;;;;11.92;61.49;99816.19;4958093;28;20046;-66
2021/04/30 04:16:24;;;;;;;7.80;3.63;;;;;;;12.00;61.75;99818.31;4957641;28;20051;-66
2021/04/30 04:18:51;;;;;;;16.50;4.50;;;;;;;11.96;61.53;99814.44;4954209;28;20058;-66
2021/04/30 04:21:17;;;;;;;13.43;6.30;;;;;;;12.04;61.55;99826.91;4955632;28;20156;-66
2021/04/30 04:23:43;;;;;;;16.43;8.63;;;;;;;12.07;61.46;99837.50;4958218;28;20086;-67
2021/04/30 04:26:10;;;;;;;12.03;6.90;;;;;;;12.00;61.51;99832.28;4961524;28;20059;-67
2021/04/30 04:28:36;;;;;;;15.90;7.20;;;;;;;11.95;61.75;99837.16;4955570;28;20047;-67
2021/04/30 04:31:03;;;;;;;18.20;9.40;;;;;;;11.81;61.94;99811.91;4953037;28;20043;-67
2021/04/30 04:33:31;;;;;;;16.07;9.70;;;;;;;11.85;61.81;99833.38;4955541;28;20047;-68
2021/04/30 04:35:58;;;;;;;17.37;9.80;;;;;;;11.76;61.95;99831.56;4961039;28;20147;-68
2021/04/30 04:38:26;;;;;;;18.83;8.20;;;;;;;11.72;61.75;99836.09;4964619;28;20050;-68
2021/04/30 04:40:53;;;;;;;15.43;8.73;;;;;;;11.59;61.63;99826.56;4957484;28;20047;-67
2021/04/30 04:43:19;;;;;;;14.37;8.00;;;;;;;11.48;61.65;99823.06;4959815;28;20051;-67
2021/04/30 04:45:45;;;;;;;18.30;9.90;;;;;;;11.51;61.63;99827.22;4957536;28;20047;-66
2021/04/30 04:48:12;;;;;;;15.53;9.17;;;;;;;11.56;61.76;99830.78;4958694;28;20728;-67
2021/04/30 04:50:38;;;;;;;12.90;7.87;;;;;;;11.49;61.78;99826.72;4958513;28;20054;-68
2021/04/30 04:53:21;;;;;;;17.63;8.77;;;;;;;11.49;61.69;99824.75;4956693;28;20082;-67
2021/04/30 04:55:56;;;;;;;16.50;9.00;;;;;;;11.45;61.67;99812.50;4954681;28;20516;-66
2021/04/30 04:58:22;;;;;;;12.57;8.17;;;;;;;11.45;61.63;99817.25;4961801;28;20051;-67
2021/04/30 05:00:49;;;;;;;15.47;7.83;;;;;;;11.38;61.83;99812.03;4961913;28;20049;-67
2021/04/30 05:03:17;;;;;;;21.70;10.20;;;;;;;11.56;61.91;99838.34;4960007;28;20583;-65
2021/04/30 05:05:43;;;;;;;21.37;10.20;;;;;;;11.49;61.99;99835.94;4961903;28;20175;-66
2021/04/30 05:08:10;;;;;;;16.97;9.83;;;;;;;11.39;61.93;99827.72;4964989;28;20057;-66
2021/04/30 05:10:36;;;;;;;14.93;8.43;;;;;;;11.26;61.96;99820.09;4957544;28;20121;-66
2021/04/30 05:13:02;;;;;;;15.50;8.70;;;;;;;11.29;62.04;99836.25;4961799;28;20054;-71
2021/04/30 05:15:28;;;;;;;16.67;9.30;;;;;;;11.24;62.10;99833.53;4960317;28;20388;-68
2021/04/30 05:17:55;;;;;;;13.83;9.00;;;;;;;11.24;62.11;99841.91;4958838;28;20055;-70
2021/04/30 05:20:26;;;;;;;18.73;10.30;;;;;;;11.22;62.10;99856.19;4962316;28;20057;-72
2021/04/30 05:22:53;;;;;;;18.63;10.10;;;;;;;11.14;62.21;99840.09;4965687;28;20043;-68
2021/04/30 05:25:20;;;;;;;16.00;9.77;;;;;;;11.16;62.17;99857.41;4963479;28;20047;-68
2021/04/30 05:27:46;;;;;;;14.40;8.83;;;;;;;11.07;62.19;99857.22;4961403;28;20965;-70
2021/04/30 05:30:15;;;;;;;15.77;9.03;;;;;;;11.03;62.41;99845.00;4963179;28;20074;-68
2021/04/30 05:32:41;;;;;;;17.73;9.70;;;;;;;11.11;62.26;99869.50;4963851;28;20047;-65
2021/04/30 05:35:09;;;;;;;22.50;9.67;;;;;;;11.12;62.33;99868.34;4963529;28;20043;-67
2021/04/30 05:37:35;;;;;;;21.27;10.23;;;;;;;11.10;62.27;99876.19;4960705;28;20059;-66
2021/04/30 05:40:02;;;;;;;20.93;10.10;;;;;;;11.09;62.28;99871.75;4964099;28;20603;-68
2021/04/30 05:42:28;;;;;;;19.07;9.83;;;;;;;11.05;62.16;99870.69;4967382;28;20051;-71
2021/04/30 05:44:55;;;;;;;15.17;9.87;;;;;;;11.10;62.21;99884.56;4962697;28;20065;-81
2021/04/30 05:47:23;;;;;;;21.53;9.37;;;;;;;11.15;62.25;99870.53;4964920;28;20057;-72
2021/04/30 05:49:49;;;;;;;20.13;10.27;;;;;;;11.21;62.09;99876.03;4966503;28;20043;-72
2021/04/30 05:52:15;;;;;;;11.17;7.70;;;;;;;11.19;62.27;99872.75;4959903;28;20051;-69
2021/04/30 05:54:42;;;;;;;18.90;10.23;;;;;;;11.29;62.22;99880.97;4961745;28;20078;-66
2021/04/30 05:57:09;;;;;;;15.83;9.37;;;;;;;11.35;62.23;99880.59;4962434;28;20044;-69
2021/04/30 05:59:35;;;;;;;16.47;9.20;;;;;;;11.32;62.24;99881.19;4961974;28;20051;-65
2021/04/30 06:02:01;;;;;;;20.33;9.10;;;;;;;11.37;62.19;99888.66;4960535;28;20047;-71
2021/04/30 06:04:31;;;;;;;17.77;10.03;;;;;;;11.47;62.12;99888.53;4960280;28;20051;-69
2021/04/30 06:06:57;;;;;;;15.93;9.13;;;;;;;11.59;62.35;99885.28;4960865;28;20054;-69
2021/04/30 06:09:24;;;;;;;18.77;9.60;;;;;;;11.77;62.22;99897.56;4960003;28;20137;-69
2021/04/30 06:11:50;;;;;;;17.13;11.43;;;;;;;11.85;62.57;99894.09;4962491;28;20051;-67
2021/04/30 06:14:16;;;;;;;18.23;10.03;;;;;;;12.04;62.52;99894.91;4959325;28;20492;-69
2021/04/30 06:16:43;;;;;;;17.47;9.10;;;;;;;12.03;62.19;99893.25;4963838;28;20089;-70
2021/04/30 06:19:15;;;;;;;15.50;8.13;;;;;;;12.12;62.25;99898.13;4957323;28;20058;-75
2021/04/30 06:21:43;;;;;;;13.80;8.70;;;;;;;12.27;62.18;99904.28;4959265;28;20051;-69
2021/04/30 06:24:10;;;;;;;14.37;9.63;;;;;;;12.32;62.16;99907.00;4962565;28;20050;-71
2021/04/30 06:26:36;;;;;;;16.70;10.97;;;;;;;12.40;62.36;99913.84;4961524;28;20053;-69
2021/04/30 06:29:03;;;;;;;19.90;9.93;;;;;;;12.35;62.42;99899.94;4968975;28;20097;-70
2021/04/30 06:31:29;;;;;;;20.17;9.87;;;;;;;12.42;62.21;99891.97;4965282;28;20043;-71
2021/04/30 06:33:55;;;;;;;15.93;9.27;;;;;;;12.67;62.18;99915.03;4961187;28;21089;-71
2021/04/30 06:36:22;;;;;;;17.13;8.57;;;;;;;12.73;62.12;99913.78;4967491;28;20061;-70
2021/04/30 06:38:48;;;;;;;16.03;9.70;;;;;;;12.86;61.96;99918.56;4962315;28;20054;-69
2021/04/30 06:41:14;;;;;;;17.50;9.23;;;;;;;13.07;61.88;99915.34;4961795;28;20043;-71
2021/04/30 06:43:43;;;;;;;14.00;8.53;;;;;;;13.13;61.43;99925.28;4961527;28;20043;-70
2021/04/30 06:46:09;;;;;;;13.83;8.17;;;;;;;13.15;61.50;99903.38;4941248;28;20515;-72
2021/04/30 06:48:40;;;;;;;14.67;7.27;;;;;;;13.43;61.49;99926.63;4962267;28;20055;-70
2021/04/30 06:51:06;;;;;;;13.50;7.27;;;;;;;13.48;61.33;99938.56;4966787;28;20053;-69
2021/04/30 06:53:33;;;;;;;15.63;7.90;;;;;;;13.20;61.29;99870.47;4958148;28;20504;-70
2021/04/30 06:56:00;;;;;;;14.43;7.40;;;;;;;13.58;61.13;99914.25;4963250;28;20050;-71
2021/04/30 06:58:26;;;;;;;18.70;8.83;;;;;;;13.84;60.78;99932.09;4965354;28;20046;-70
2021/04/30 07:00:52;;;;;;;17.33;8.53;;;;;;;14.09;60.28;99941.06;4961103;28;20480;-69
2021/04/30 07:03:18;;;;;;;14.07;7.13;;;;;;;14.23;59.88;99933.41;4961186;28;20126;-70
2021/04/30 07:05:57;;;;;;;9.87;6.90;;;;;;;14.31;59.35;99910.16;4954110;28;20127;-71
2021/04/30 07:08:23;;;;;;;13.47;7.70;;;;;;;14.63;58.96;99936.28;4961717;28;20471;-71
2021/04/30 07:10:50;;;;;;;10.77;6.83;;;;;;;14.79;58.63;99929.09;4961634;28;20039;-73
2021/04/30 07:13:16;;;;;;;13.43;8.27;;;;;;;14.89;58.38;99940.06;4965307;28;20053;-71
2021/04/30 07:15:43;;;;;;;12.07;7.37;;;;;;;14.96;57.93;99933.16;4956315;28;20054;-69
2021/04/30 07:18:09;;;;;;;16.03;8.50;;;;;;;15.14;57.88;99938.53;4962592;28;20058;-71
2021/04/30 07:20:35;;;;;;;15.37;8.07;;;;;;;15.33;57.35;99940.22;4969009;28;20050;-70
2021/04/30 07:23:06;;;;;;;15.10;8.27;;;;;;;15.45;57.22;99934.75;4954536;28;20476;-71
2021/04/30 07:25:33;;;;;;;16.57;8.50;;;;;;;15.63;56.72;99946.88;4954482;28;20047;-70
2021/04/30 07:27:59;;;;;;;10.80;6.03;;;;;;;15.76;56.60;99950.72;4954766;28;20047;-70
2021/04/30 07:30:28;;;;;;;6.67;4.53;;;;;;;15.80;56.06;99935.69;4956591;28;20047;-71
2021/04/30 07:32:55;;;;;;;10.87;5.00;;;;;;;16.00;55.28;99945.47;4954264;28;20122;-71
2021/04/30 07:35:40;;;;;;;7.10;4.20;;;;;;;16.13;54.90;99934.31;4954263;28;20519;-70
2021/04/30 07:38:07;;;;;;;9.13;5.65;;;;;;;16.41;54.35;99946.91;4954194;28;20390;-70
2021/04/30 07:40:34;;;;;;;10.03;5.40;;;;;;;16.47;53.85;99944.72;4953953;28;20111;-70
2021/04/30 07:43:00;;;;;;;8.00;4.53;;;;;;;16.61;53.30;99948.16;4953935;28;20686;-69
2021/04/30 07:45:26;;;;;;;11.45;5.28;;;;;;;16.80;52.83;99956.28;4953783;28;20057;-70
2021/04/30 07:47:53;;;;;;;7.35;3.92;;;;;;;16.80;52.63;99945.81;4961526;28;20047;-69
2021/04/30 07:50:21;;;;;;;8.17;3.90;;;;;;;16.95;52.26;99952.06;4963367;28;20566;-69
2021/04/30 07:52:47;;;;;;;8.45;4.30;;;;;;;17.08;52.23;99967.94;4954946;28;20043;-71
2021/04/30 07:55:16;;;;;;;7.20;3.90;;;;;;;17.10;51.61;99948.69;4957978;28;20047;-70
2021/04/30 07:57:43;;;;;;;5.95;3.47;;;;;;;17.34;51.21;99964.19;4958744;28;20046;-70
2021/04/30 08:00:10;;;;;;;5.68;3.58;;;;;;;17.53;50.59;99956.06;4954706;28;20055;-70
2021/04/30 08:02:36;;;;;;;5.03;3.38;;;;;;;17.66;50.37;99960.63;4964453;28;20047;-71
2021/04/30 08:05:03;;;;;;;4.05;2.78;;;;;;;17.83;49.88;99961.72;4962866;28;20046;-70
2021/04/30 08:07:29;;;;;;;4.10;2.55;;;;;;;17.95;49.23;99965.44;4961371;28;20420;-70
2021/04/30 08:09:55;;;;;;;4.53;2.75;;;;;;;18.07;49.25;99973.16;4958541;28;20536;-70
2021/04/30 08:12:22;;;;;;;3.97;2.22;;;;;;;18.02;48.99;99972.53;4959345;28;20483;-70
2021/04/30 08:14:51;;;;;;;6.47;2.33;;;;;;;17.98;49.08;99973.25;4958614;28;20151;-71
2021/04/30 08:17:18;;;;;;;7.72;3.30;;;;;;;18.04;48.68;99979.50;4959809;28;20057;-70
2021/04/30 08:19:45;;;;;;;12.27;2.40;;;;;;;18.29;48.23;99988.09;4963673;28;20121;-72
2021/04/30 08:22:11;;;;;;;6.68;3.90;;;;;;;18.39;47.76;99982.00;4958977;28;20057;-69
2021/04/30 08:24:37;;;;;;;4.57;2.95;;;;;;;17.94;47.98;99909.28;4956819;28;20062;-70
2021/04/30 08:27:04;;;;;;;5.03;3.10;;;;;;;18.50;47.28;99988.91;4958982;28;20050;-71
2021/04/30 08:29:31;;;;;;;4.88;2.58;;;;;;;18.74;46.48;99985.34;4960456;28;20390;-71
2021/04/30 08:31:57;;;;;;;2.83;1.88;;;;;;;18.88;46.27;99979.38;4960364;28;20047;-73
2021/04/30 08:34:23;;;;;;;3.97;2.05;;;;;;;19.11;45.52;99986.25;4960694;28;20043;-71
2021/04/30 08:37:11;;;;;;;5.72;2.42;;;;;;;19.35;45.18;99984.59;4962120;28;20051;-71
2021/04/30 08:39:37;;;;;;;2.42;1.63;;;;;;;19.57;44.67;99983.31;4958419;28;20060;-71
2021/04/30 08:42:04;;;;;;;3.35;2.22;;;;;;;19.83;44.07;99982.97;4954450;28;20062;-71
2021/04/30 08:44:40;;;;;;;2.92;1.85;;;;;;;19.91;43.72;99984.84;4962865;28;20392;-71
2021/04/30 08:47:07;;;;;;;4.05;2.30;;;;;;;19.95;43.58;99977.25;4956884;28;20146;-71
2021/04/30 08:49:34;;;;;;;5.03;2.28;;;;;;;19.93;43.58;99985.31;4963890;28;20499;-70
2021/04/30 08:52:01;;;;;;;3.13;1.90;;;;;;;20.08;43.60;99983.72;4961271;28;20055;-72
2021/04/30 08:54:28;;;;;;;3.95;2.65;;;;;;;19.93;42.89;99944.78;4960514;28;20076;-70
2021/04/30 08:57:00;;;;;;;4.93;2.58;;;;;;;20.44;42.34;99981.94;4961756;28;20049;-70
2021/04/30 08:59:28;;;;;;;6.78;2.60;;;;;;;20.69;41.95;99975.00;4955701;28;20130;-69
2021/04/30 09:01:56;;;;;;;6.95;2.92;;;;;;;21.10;41.83;99989.06;4968239;28;20051;-73
2021/04/30 09:04:23;;;;;;;3.75;2.30;;;;;;;21.70;41.11;99981.25;4965811;28;20412;-72
2021/04/30 09:06:49;;;;;;;3.50;2.17;;;;;;;22.32;40.36;99987.97;4964251;28;20050;-72
2021/04/30 09:09:18;;;;;;;5.88;2.47;;;;;;;22.80;39.30;99982.84;4968425;28;20415;-71
2021/04/30 09:11:52;;;;;;;3.45;2.17;;;;;;;23.32;38.63;99989.94;4965124;28;20051;-71
2021/04/30 09:14:21;;;;;;;3.22;1.92;;;;;;;23.65;37.68;99991.28;4964855;28;20073;-71
2021/04/30 09:17:01;;;;;;;4.20;2.40;;;;;;;24.01;37.95;99980.44;4967090;28;20500;-70
2021/04/30 09:20:02;;;;;;;3.40;2.25;;;;;;;24.48;36.74;99981.91;4967473;28;20105;-69
2021/04/30 09:22:30;;;;;;;2.13;1.58;;;;;;;24.78;36.06;99985.53;4964594;28;20050;-67
2021/04/30 09:25:01;;;;;;;3.28;2.00;;;;;;;25.09;35.26;100000.53;4967355;28;20516;-69
2021/04/30 09:27:31;;;;;;;5.25;1.92;;;;;;;25.25;35.17;99988.91;4966526;28;20173;-69
2021/04/30 09:30:14;;;;;;;4.70;2.25;;;;;;;25.42;35.19;99987.41;4969816;28;20043;-70
2021/04/30 09:33:05;;;;;;;2.95;2.00;;;;;;;25.60;35.03;99985.50;4964626;28;20515;-71
2021/04/30 09:35:37;;;;;;;3.38;2.22;;;;;;;25.73;34.37;99972.53;4967439;28;20150;-69
2021/04/30 09:38:32;;;;;;;4.25;1.80;;;;;;;25.75;34.34;99981.56;4963808;28;20053;-70
2021/04/30 09:41:01;;;;;;;3.25;2.10;;;;;;;25.84;34.46;99986.94;4963364;28;20047;-70
2021/04/30 09:43:46;;;;;;;3.85;2.03;;;;;;;26.08;33.83;99990.38;4962353;28;20047;-69
2021/04/30 09:46:33;;;;;;;3.67;1.98;;;;;;;26.14;34.04;99986.72;4967489;28;20050;-69
2021/04/30 09:48:59;;;;;;;3.35;2.40;;;;;;;26.35;33.06;99991.75;4965652;28;20054;-71
2021/04/30 09:51:41;;;;;;;3.72;1.85;;;;;;;26.37;33.01;99989.31;4966662;28;20040;-70
2021/04/30 09:54:24;;;;;;;3.65;2.05;;;;;;;26.52;32.54;99989.41;4964487;28;20050;-71
2021/04/30 09:57:18;;;;;;;2.75;1.67;;;;;;;26.54;32.78;99979.19;4967475;28;20511;-70
2021/04/30 09:59:52;;;;;;;3.10;1.65;;;;;;;26.70;32.18;99978.81;4959217;28;20049;-70
2021/04/30 10:02:20;;;;;;;2.63;1.80;;;;;;;26.80;31.28;99983.75;4969407;28;20687;-72
2021/04/30 10:04:49;;;;;;;4.13;1.67;;;;;;;27.03;31.00;99985.47;4967131;28;20069;-70
2021/04/30 10:07:33;;;;;;;4.67;2.00;;;;;;;27.09;31.48;99978.91;4967052;28;20051;-71
2021/04/30 10:10:19;;;;;;;2.90;1.98;;;;;;;27.36;30.39;99975.72;4964084;28;20050;-71
2021/04/30 10:13:06;;;;;;;2.05;1.40;;;;;;;27.30;30.63;99966.69;4963845;28;20412;-69
2021/04/30 10:15:32;;;;;;;2.70;1.42;;;;;;;27.48;30.18;99969.56;4957283;28;20480;-70
2021/04/30 10:18:00;;;;;;;1.10;1.00;;;;;;;27.74;29.59;99981.84;4969094;28;20050;-71
2021/04/30 10:20:26;;;;;;;3.30;1.00;;;;;;;27.95;28.78;99981.81;4965362;28;20556;-70
2021/04/30 10:22:57;;;;;;;2.22;1.40;;;;;;;27.85;28.52;99966.25;4964847;28;20121;-70
2021/04/30 10:25:26;;;;;;;2.03;1.17;;;;;;;28.02;28.82;99972.38;4963336;28;20051;-70
2021/04/30 10:27:53;;;;;;;;;;;;;;;27.81;31.77;99973.25;4960856;28;20066;-70
2021/04/30 10:30:32;;;;;;;4.82;1.45;;;;;;;28.15;29.51;99964.16;4962945;28;19922;-71
2021/04/30 10:33:20;;;;;;;3.15;1.15;;;;;;;28.44;28.30;99968.56;4963168;28;20053;-71
2021/04/30 10:35:55;;;;;;;4.82;1.50;;;;;;;28.51;28.24;99957.06;4963597;28;20082;-70
2021/04/30 10:38:24;;;;;;;2.90;1.45;;;;;;;28.54;27.82;99970.56;4965875;28;20567;-72
2021/04/30 10:41:01;;;;;;;;;;;;;;;28.25;30.49;99963.31;4962391;28;20488;-71
2021/04/30 10:43:28;;;;;;;1.77;1.27;;;;;;;28.70;28.42;99966.41;4967722;28;20306;-70
2021/04/30 10:46:14;;;;;;;2.70;1.50;;;;;;;28.91;28.13;99974.09;4962524;28;20415;-72
2021/04/30 10:49:06;;;;;;;2.78;1.65;;;;;;;29.12;28.51;99964.53;4957337;28;20059;-70
2021/04/30 10:51:34;;;;;;;3.97;1.67;;;;;;;29.56;27.54;99954.31;4964883;28;20503;-70
2021/04/30 10:54:29;;;;;;;2.30;1.40;;;;;;;29.58;27.49;99951.84;4961116;28;20158;-72
2021/04/30 10:56:57;;;;;;;3.50;1.63;;;;;;;28.69;28.59;99953.28;4961339;28;20061;-72
2021/04/30 10:59:47;;;;;;;2.90;1.92;;;;;;;27.71;29.82;99946.19;4962858;28;20539;-73
2021/04/30 11:02:27;;;;;;;2.67;1.67;;;;;;;27.64;30.04;99951.94;4962127;28;20043;-72
2021/04/30 11:05:03;;;;;;;3.08;1.80;;;;;;;27.53;30.68;99949.06;4959842;28;20079;-72
2021/04/30 11:07:38;;;;;;;2.63;1.48;;;;;;;27.63;29.74;99950.31;4961266;28;20496;-73
2021/04/30 11:10:27;;;;;;;1.75;1.30;;;;;;;27.17;30.21;99951.94;4961990;28;20043;-72
2021/04/30 11:13:15;;;;;;;2.10;1.50;;;;;;;26.63;30.30;99950.16;4952766;28;20133;-72
2021/04/30 11:15:48;;;;;;;2.25;1.38;;;;;;;26.60;31.22;99943.22;4961261;28;20043;-71
2021/04/30 11:18:21;;;;;;;1.98;1.52;;;;;;;26.58;30.64;99947.69;4958463;28;20048;-72
2021/04/30 11:21:10;;;;;;;1.90;1.55;;;;;;;27.13;30.11;99939.66;4958359;28;20079;-73
2021/04/30 11:23:47;;;;;;;4.65;1.80;;;;;;;27.61;29.23;99936.34;4957504;28;20039;-69
2021/04/30 11:26:18;;;;;;;4.10;1.58;;;;;;;27.70;29.67;99927.34;4960923;28;20046;-72
2021/04/30 11:28:44;;;;;;;1.83;1.40;;;;;;;27.79;29.17;99944.13;4962670;28;20057;-72
2021/04/30 11:31:25;;;;;;;2.50;1.13;;;;;;;27.93;28.30;99940.41;4962852;28;20153;-73
2021/04/30 11:34:11;;;;;;;1.95;1.33;;;;;;;28.16;29.15;99948.56;4961444;28;20050;-71
2021/04/30 11:36:46;;;;;;;1.98;1.15;;;;;;;28.14;28.08;99939.53;4959565;28;20538;-73
2021/04/30 11:39:32;;;;;;;1.67;1.40;;;;;;;28.63;27.35;99927.03;4958380;28;20559;-70